Time;durP1;ratioP1;P1;durP2;ratioP2;P2;SDS_P1;SDS_P2;PMS_P1;PMS_P2;Temp;Humidity;BMP_temperature;BMP_pressure;BME280_temperature;BME280_humidity;BME280_pressure;Samples;Min_cycle;Max_cycle;Signal;HPM_P1;HPM_P2
2022/03/08 00:00:46;;;;;;;16.25;10.48;;;4.50;91.40;;;;;;6185386;23;19997;-85
2022/03/08 00:03:14;;;;;;;16.88;10.63;;;4.50;91.50;;;;;;6184099;23;19997;-84
2022/03/08 00:05:40;;;;;;;16.08;10.85;;;4.50;91.40;;;;;;6158616;23;20376;-84
2022/03/08 00:08:11;;;;;;;15.73;10.63;;;4.40;91.50;;;;;;6184025;23;20006;-84
2022/03/08 00:10:42;;;;;;;19.42;10.60;;;4.40;91.80;;;;;;6159708;23;20031;-86
2022/03/08 00:13:08;;;;;;;16.00;11.13;;;4.40;91.70;;;;;;6185284;23;20024;-84
2022/03/08 00:15:33;;;;;;;16.50;10.18;;;4.30;92.10;;;;;;6184020;23;19997;-84
2022/03/08 00:17:59;;;;;;;18.33;10.85;;;4.40;92.00;;;;;;6183765;23;20052;-84
2022/03/08 00:20:25;;;;;;;15.80;10.30;;;4.30;92.00;;;;;;6158896;23;20022;-84
2022/03/08 00:22:53;;;;;;;15.95;10.38;;;4.30;92.20;;;;;;6183472;23;20005;-85
2022/03/08 00:25:22;;;;;;;20.13;10.75;;;4.30;92.50;;;;;;6185111;23;20001;-85
2022/03/08 00:27:54;;;;;;;15.10;9.55;;;4.30;92.40;;;;;;6185310;23;20033;-84
2022/03/08 00:30:29;;;;;;;17.25;10.57;;;4.20;92.90;;;;;;6159783;23;20028;-85
2022/03/08 00:33:03;;;;;;;14.30;10.18;;;4.20;92.90;;;;;;6183790;23;20074;-83
2022/03/08 00:35:32;;;;;;;14.95;10.65;;;4.20;93.10;;;;;;6183985;23;20336;-84
2022/03/08 00:38:01;;;;;;;15.07;10.25;;;4.20;92.80;;;;;;6184867;23;20009;-84
2022/03/08 00:40:27;;;;;;;15.15;10.35;;;4.20;92.70;;;;;;6183766;23;20071;-83
2022/03/08 00:42:58;;;;;;;15.90;10.32;;;4.10;92.80;;;;;;6183104;23;20432;-86
2022/03/08 00:45:33;;;;;;;19.35;10.85;;;4.10;92.80;;;;;;6183765;23;20009;-83
2022/03/08 00:48:10;;;;;;;17.13;10.57;;;4.10;92.70;;;;;;6183748;23;20009;-84
2022/03/08 00:50:39;;;;;;;16.27;10.45;;;4.00;92.80;;;;;;6183738;23;20117;-83
2022/03/08 00:53:08;;;;;;;16.00;10.20;;;4.00;93.20;;;;;;6185637;23;20004;-83
2022/03/08 00:55:38;;;;;;;18.48;10.88;;;4.00;93.30;;;;;;6183501;23;20008;-84
2022/03/08 00:58:06;;;;;;;16.25;10.70;;;4.00;93.70;;;;;;6183800;23;20005;-86
2022/03/08 01:00:43;;;;;;;14.02;9.73;;;4.00;93.70;;;;;;6185405;23;20028;-83
2022/03/08 01:03:09;;;;;;;16.42;10.02;;;4.00;93.80;;;;;;6185622;23;20068;-83
2022/03/08 01:05:35;;;;;;;16.45;11.20;;;4.00;93.70;;;;;;6185733;23;20009;-83
2022/03/08 01:08:04;;;;;;;15.50;10.02;;;3.90;94.00;;;;;;6185333;23;20002;-84
2022/03/08 01:10:30;;;;;;;16.48;10.38;;;3.90;94.00;;;;;;6185593;23;20096;-84
2022/03/08 01:12:56;;;;;;;15.18;10.15;;;3.90;94.10;;;;;;6185454;23;20043;-84
2022/03/08 01:15:26;;;;;;;15.80;10.18;;;3.90;94.20;;;;;;6160842;23;20044;-84
2022/03/08 01:17:53;;;;;;;15.05;9.43;;;3.90;94.20;;;;;;6185136;23;20427;-84
2022/03/08 01:20:20;;;;;;;17.00;10.23;;;3.80;94.20;;;;;;6185012;23;20028;-84
2022/03/08 01:22:45;;;;;;;15.68;9.70;;;3.80;94.20;;;;;;6184721;23;20009;-84
2022/03/08 01:25:15;;;;;;;17.40;10.10;;;3.80;94.20;;;;;;6185376;23;19997;-83
2022/03/08 01:27:41;;;;;;;15.30;9.70;;;3.70;94.30;;;;;;6186884;23;20001;-84
2022/03/08 01:30:11;;;;;;;13.48;8.77;;;3.70;94.60;;;;;;6185181;23;20025;-84
2022/03/08 01:32:37;;;;;;;15.00;9.68;;;3.70;94.20;;;;;;6184909;23;20001;-84
2022/03/08 01:35:04;;;;;;;16.15;9.65;;;3.60;94.10;;;;;;6160226;23;20009;-84
2022/03/08 01:37:29;;;;;;;14.27;8.95;;;3.60;94.40;;;;;;6160475;23;20332;-83
2022/03/08 01:39:55;;;;;;;19.90;9.40;;;3.60;94.40;;;;;;6184859;23;20039;-83
2022/03/08 01:42:25;;;;;;;16.65;10.05;;;3.60;94.60;;;;;;6185156;23;20059;-84
2022/03/08 01:44:52;;;;;;;14.60;9.38;;;3.60;94.80;;;;;;6186288;23;20004;-83
2022/03/08 01:47:21;;;;;;;15.00;9.35;;;3.60;94.80;;;;;;6185243;23;20001;-83
2022/03/08 01:49:50;;;;;;;14.98;8.95;;;3.50;94.60;;;;;;6186536;23;20028;-84
2022/03/08 01:52:18;;;;;;;14.65;8.93;;;3.50;94.40;;;;;;6185069;23;20013;-84
2022/03/08 01:54:54;;;;;;;15.57;8.82;;;3.50;94.50;;;;;;6185122;23;20001;-83
2022/03/08 01:57:25;;;;;;;12.57;8.73;;;3.50;94.50;;;;;;6186373;23;20071;-84
2022/03/08 01:59:52;;;;;;;14.35;7.93;;;3.50;94.60;;;;;;6186490;23;20001;-85
2022/03/08 02:02:19;;;;;;;12.68;7.90;;;3.50;94.40;;;;;;6184968;23;20020;-84
2022/03/08 02:04:45;;;;;;;12.40;8.05;;;3.40;94.50;;;;;;6184659;23;20021;-85
2022/03/08 02:07:11;;;;;;;13.15;7.85;;;3.40;94.40;;;;;;6184461;23;20332;-83
2022/03/08 02:09:44;;;;;;;16.25;7.95;;;3.40;94.00;;;;;;6184759;23;20001;-83
2022/03/08 02:12:10;;;;;;;12.45;7.45;;;3.40;94.10;;;;;;6184873;23;20012;-83
2022/03/08 02:14:36;;;;;;;10.88;7.30;;;3.40;94.20;;;;;;6185015;23;20001;-83
2022/03/08 02:17:03;;;;;;;13.85;8.07;;;3.30;94.50;;;;;;6184593;23;20005;-84
2022/03/08 02:19:29;;;;;;;12.15;7.80;;;3.30;94.60;;;;;;6184616;23;20005;-83
2022/03/08 02:21:57;;;;;;;14.23;8.23;;;3.30;94.60;;;;;;6184739;23;20015;-83
2022/03/08 02:24:26;;;;;;;12.98;7.20;;;3.30;94.70;;;;;;6184860;23;20004;-83
2022/03/08 02:26:52;;;;;;;12.52;7.70;;;3.30;94.70;;;;;;6184825;23;20001;-84
2022/03/08 02:29:20;;;;;;;13.38;7.65;;;3.20;94.40;;;;;;6184804;23;20001;-84
2022/03/08 02:31:47;;;;;;;9.88;6.82;;;3.20;94.30;;;;;;6184369;23;20009;-83
2022/03/08 02:34:14;;;;;;;12.15;7.10;;;3.20;94.00;;;;;;6184633;23;20009;-83
2022/03/08 02:37:04;;;;;;;;;;;;;;;;;;;;;
2022/03/08 02:39:33;;;;;;;14.48;7.13;;;3.10;94.00;;;;;;6184880;23;20386;-84
2022/03/08 02:42:00;;;;;;;10.68;6.90;;;3.10;94.30;;;;;;6184380;23;20028;-84
2022/03/08 02:44:29;;;;;;;10.82;6.63;;;3.10;94.20;;;;;;6184723;23;20005;-84
2022/03/08 02:47:02;;;;;;;11.55;6.80;;;3.10;94.20;;;;;;6184519;23;20089;-87
2022/03/08 02:49:30;;;;;;;10.43;6.50;;;3.10;94.20;;;;;;6186307;23;20128;-83
2022/03/08 02:51:56;;;;;;;11.43;6.63;;;3.10;94.10;;;;;;6185592;23;20005;-86
2022/03/08 02:54:25;;;;;;;10.15;6.60;;;3.10;94.00;;;;;;6184602;23;20293;-83
2022/03/08 02:56:51;;;;;;;10.32;5.75;;;3.10;94.00;;;;;;6184592;23;20001;-83
2022/03/08 02:59:22;;;;;;;9.57;5.97;;;3.00;93.80;;;;;;6184403;23;20056;-83
2022/03/08 03:01:48;;;;;;;12.10;6.07;;;3.00;93.80;;;;;;6184453;23;20005;-84
2022/03/08 03:04:16;;;;;;;7.70;5.45;;;3.00;93.60;;;;;;6184344;23;20008;-83
2022/03/08 03:06:43;;;;;;;11.25;6.32;;;3.00;93.20;;;;;;6184244;23;20023;-83
2022/03/08 03:09:09;;;;;;;7.60;5.28;;;3.00;93.10;;;;;;6159750;23;20009;-84
2022/03/08 03:11:37;;;;;;;8.85;5.18;;;3.00;93.00;;;;;;6184138;23;20059;-84
2022/03/08 03:14:03;;;;;;;9.85;5.57;;;2.90;92.80;;;;;;6185288;23;20080;-84
2022/03/08 03:16:38;;;;;;;9.93;5.47;;;3.00;92.70;;;;;;6184699;23;20432;-83
2022/03/08 03:19:06;;;;;;;8.27;4.78;;;2.90;92.50;;;;;;6184170;23;20031;-84
2022/03/08 03:21:32;;;;;;;9.50;5.13;;;2.90;92.40;;;;;;6183459;23;20017;-84
2022/03/08 03:23:58;;;;;;;8.88;4.97;;;2.90;92.90;;;;;;6184381;23;20033;-84
2022/03/08 03:26:26;;;;;;;9.65;5.60;;;2.90;92.40;;;;;;6159298;23;20028;-83
2022/03/08 03:28:55;;;;;;;8.48;4.70;;;2.90;92.40;;;;;;6136152;23;20059;-83
2022/03/08 03:31:23;;;;;;;7.97;5.18;;;2.80;92.40;;;;;;6183960;23;20104;-84
2022/03/08 03:33:49;;;;;;;9.48;5.60;;;2.90;92.30;;;;;;6183773;23;20005;-84
2022/03/08 03:36:15;;;;;;;9.43;5.25;;;2.80;92.50;;;;;;6184018;23;20011;-84
2022/03/08 03:38:41;;;;;;;9.05;5.38;;;2.80;92.30;;;;;;6159336;23;20027;-84
2022/03/08 03:41:06;;;;;;;9.32;4.95;;;2.80;92.10;;;;;;6183487;23;20064;-84
2022/03/08 03:43:32;;;;;;;7.68;4.40;;;2.80;92.00;;;;;;6184193;23;19997;-85
2022/03/08 03:45:58;;;;;;;10.00;4.53;;;2.80;92.20;;;;;;6183741;23;20001;-84
2022/03/08 03:48:26;;;;;;;8.23;4.90;;;2.80;92.30;;;;;;6158920;23;20006;-84
2022/03/08 03:50:52;;;;;;;8.88;5.22;;;2.80;92.10;;;;;;6185678;23;20064;-84
2022/03/08 03:53:17;;;;;;;7.88;4.50;;;2.80;92.20;;;;;;6183950;23;20005;-84
2022/03/08 03:55:46;;;;;;;6.82;4.47;;;2.70;92.20;;;;;;6183860;23;20298;-84
2022/03/08 03:58:11;;;;;;;8.20;5.00;;;2.70;92.10;;;;;;6183011;23;20056;-83
2022/03/08 04:00:37;;;;;;;13.00;5.38;;;2.70;92.30;;;;;;6185509;23;20351;-83
2022/03/08 04:03:05;;;;;;;9.10;5.07;;;2.70;92.70;;;;;;6183837;23;20009;-83
2022/03/08 04:05:33;;;;;;;8.18;4.93;;;2.70;92.70;;;;;;6183962;23;20092;-83
2022/03/08 04:07:59;;;;;;;8.48;5.60;;;2.70;92.90;;;;;;6183889;23;20044;-83
2022/03/08 04:10:31;;;;;;;8.10;5.38;;;2.70;92.70;;;;;;6183695;23;20001;-83
2022/03/08 04:12:56;;;;;;;8.55;5.45;;;2.70;93.00;;;;;;6160037;23;20009;-83
2022/03/08 04:15:24;;;;;;;8.02;5.35;;;2.60;92.80;;;;;;6158976;23;20052;-83
2022/03/08 04:17:50;;;;;;;8.15;5.43;;;2.60;92.80;;;;;;6184080;23;20005;-83
2022/03/08 04:20:16;;;;;;;9.35;5.63;;;2.60;93.00;;;;;;6183559;23;20013;-84
2022/03/08 04:22:42;;;;;;;8.60;5.55;;;2.60;92.90;;;;;;6183973;23;20455;-83
2022/03/08 04:25:11;;;;;;;9.05;5.45;;;2.50;92.80;;;;;;6183677;23;19998;-85
2022/03/08 04:27:39;;;;;;;10.00;4.57;;;2.50;92.50;;;;;;6183768;23;20040;-83
2022/03/08 04:30:07;;;;;;;9.10;5.50;;;2.50;92.60;;;;;;6183728;23;20025;-85
2022/03/08 04:32:32;;;;;;;9.98;5.82;;;2.50;92.50;;;;;;6185622;23;20037;-83
2022/03/08 04:34:58;;;;;;;8.38;5.20;;;2.40;92.50;;;;;;6185510;23;20001;-83
2022/03/08 04:37:24;;;;;;;10.23;5.68;;;2.40;92.60;;;;;;6160808;23;20005;-83
2022/03/08 04:39:50;;;;;;;11.18;5.25;;;2.40;92.90;;;;;;6187098;23;20328;-85
2022/03/08 04:42:16;;;;;;;8.25;5.20;;;2.40;93.00;;;;;;6185703;23;20412;-83
2022/03/08 04:44:41;;;;;;;8.95;5.55;;;2.30;93.10;;;;;;6185636;23;20012;-83
2022/03/08 04:47:07;;;;;;;7.30;4.70;;;2.40;92.80;;;;;;6185595;23;20001;-83
2022/03/08 04:49:35;;;;;;;8.52;5.15;;;2.30;92.90;;;;;;6185539;23;20375;-83
2022/03/08 04:52:02;;;;;;;9.32;5.32;;;2.30;92.80;;;;;;6185711;23;20017;-83
2022/03/08 04:54:31;;;;;;;7.55;4.97;;;2.30;92.70;;;;;;6185472;23;20005;-83
2022/03/08 04:56:59;;;;;;;8.18;5.07;;;2.30;92.80;;;;;;6185704;23;20029;-82
2022/03/08 04:59:25;;;;;;;8.32;4.70;;;2.30;92.90;;;;;;6185380;23;19997;-84
2022/03/08 05:01:50;;;;;;;11.27;5.28;;;2.30;92.80;;;;;;6160506;23;20079;-83
2022/03/08 05:04:20;;;;;;;8.35;5.13;;;2.30;92.60;;;;;;6186775;23;20004;-83
2022/03/08 05:06:47;;;;;;;11.55;5.22;;;2.30;92.50;;;;;;6185333;23;20100;-83
2022/03/08 05:09:16;;;;;;;10.63;6.80;;;2.30;92.40;;;;;;6185280;23;20001;-90
2022/03/08 05:11:42;;;;;;;10.10;5.50;;;2.30;92.20;;;;;;6185620;23;20087;-83
2022/03/08 05:14:10;;;;;;;7.18;4.72;;;2.30;92.40;;;;;;6187858;23;19998;-84
2022/03/08 05:16:36;;;;;;;9.18;5.32;;;2.30;92.50;;;;;;6186667;23;20420;-84
2022/03/08 05:19:04;;;;;;;8.00;5.28;;;2.30;92.60;;;;;;6161357;23;20012;-84
2022/03/08 05:21:30;;;;;;;9.68;5.63;;;2.30;92.70;;;;;;6186183;23;20020;-84
2022/03/08 05:23:55;;;;;;;8.55;5.57;;;2.20;92.70;;;;;;6185528;23;20005;-83
2022/03/08 05:26:26;;;;;;;8.85;5.07;;;2.30;93.10;;;;;;6185764;23;20005;-84
2022/03/08 05:28:52;;;;;;;11.02;6.07;;;2.30;92.90;;;;;;6183487;23;20001;-85
2022/03/08 05:31:18;;;;;;;10.00;5.55;;;2.20;93.00;;;;;;6183014;23;20321;-85
2022/03/08 05:33:43;;;;;;;13.77;6.03;;;2.20;93.30;;;;;;6183963;23;19997;-84
2022/03/08 05:36:09;;;;;;;10.25;5.78;;;2.20;93.40;;;;;;6184683;23;20012;-84
2022/03/08 05:38:35;;;;;;;9.50;5.80;;;2.20;93.30;;;;;;6184742;23;20447;-84
2022/03/08 05:41:01;;;;;;;9.45;6.07;;;2.20;93.60;;;;;;6184739;23;20335;-84
2022/03/08 05:43:28;;;;;;;9.40;5.93;;;2.20;93.60;;;;;;6184739;23;20424;-84
2022/03/08 05:45:54;;;;;;;10.25;6.20;;;2.20;93.90;;;;;;6185025;23;20309;-83
2022/03/08 05:48:22;;;;;;;12.65;6.03;;;2.20;93.70;;;;;;6184926;23;20051;-84
2022/03/08 05:50:57;;;;;;;9.23;5.95;;;2.10;93.80;;;;;;6185105;23;20001;-83
2022/03/08 05:53:30;;;;;;;9.57;6.07;;;2.10;94.00;;;;;;6184887;23;20009;-84
2022/03/08 05:55:56;;;;;;;10.27;5.70;;;2.10;93.90;;;;;;6185263;23;20032;-84
2022/03/08 05:58:22;;;;;;;9.27;5.95;;;2.10;94.10;;;;;;6184903;23;19997;-84
2022/03/08 06:00:48;;;;;;;9.00;5.93;;;2.10;94.30;;;;;;6185149;23;20412;-83
2022/03/08 06:03:24;;;;;;;11.13;6.50;;;2.00;94.50;;;;;;6185059;23;20004;-83
2022/03/08 06:05:50;;;;;;;11.38;6.20;;;2.00;94.80;;;;;;6185241;23;19997;-85
2022/03/08 06:08:16;;;;;;;11.45;6.55;;;2.00;94.80;;;;;;6184689;23;20001;-82
2022/03/08 06:10:43;;;;;;;9.38;5.97;;;2.00;95.00;;;;;;6159949;23;20009;-83
2022/03/08 06:13:11;;;;;;;9.20;5.90;;;2.00;95.00;;;;;;6160131;23;20013;-84
2022/03/08 06:15:40;;;;;;;9.45;6.05;;;1.90;94.90;;;;;;6184363;23;20032;-83
2022/03/08 06:18:05;;;;;;;10.52;6.05;;;1.90;95.10;;;;;;6160608;23;20475;-82
2022/03/08 06:20:34;;;;;;;12.80;6.00;;;1.90;94.90;;;;;;6183903;23;20016;-84
2022/03/08 06:23:02;;;;;;;10.55;6.93;;;1.90;95.00;;;;;;6160665;23;20040;-83
2022/03/08 06:25:28;;;;;;;11.57;7.25;;;1.90;94.90;;;;;;6183185;23;19997;-83
2022/03/08 06:28:06;;;;;;;9.93;5.95;;;1.90;94.80;;;;;;6184737;23;20009;-84
2022/03/08 06:30:34;;;;;;;9.95;6.38;;;1.90;94.60;;;;;;6184404;23;20001;-84
2022/03/08 06:33:00;;;;;;;12.60;7.00;;;1.90;94.40;;;;;;6185011;23;20434;-83
2022/03/08 06:35:26;;;;;;;11.20;6.35;;;1.90;94.40;;;;;;6184575;23;20001;-84
2022/03/08 06:37:51;;;;;;;10.18;6.47;;;1.80;94.40;;;;;;6184578;23;20080;-83
2022/03/08 06:40:19;;;;;;;9.80;6.35;;;1.90;94.60;;;;;;6184726;23;19997;-83
2022/03/08 06:42:45;;;;;;;11.43;6.00;;;1.90;94.30;;;;;;6184278;23;20009;-83
2022/03/08 06:45:11;;;;;;;9.68;6.45;;;1.90;94.20;;;;;;6184589;23;20007;-83
2022/03/08 06:47:39;;;;;;;9.40;5.75;;;1.90;94.10;;;;;;6184495;23;20012;-83
2022/03/08 06:50:11;;;;;;;10.93;5.43;;;1.90;94.00;;;;;;6185808;23;20435;-83
2022/03/08 06:52:36;;;;;;;8.18;5.88;;;1.90;93.90;;;;;;6159417;23;20009;-83
2022/03/08 06:55:03;;;;;;;10.32;5.82;;;1.90;93.80;;;;;;6159549;23;20100;-84
2022/03/08 06:57:31;;;;;;;11.77;5.85;;;1.90;93.70;;;;;;6185719;23;20031;-84
2022/03/08 06:59:59;;;;;;;10.77;6.03;;;2.00;93.70;;;;;;6184855;23;20005;-83
2022/03/08 07:02:26;;;;;;;10.60;6.57;;;2.00;93.60;;;;;;6184325;23;20063;-84
2022/03/08 07:04:54;;;;;;;9.77;6.60;;;2.00;93.70;;;;;;6184065;23;20008;-83
2022/03/08 07:07:19;;;;;;;11.43;6.63;;;2.00;93.60;;;;;;6183617;23;20091;-84
2022/03/08 07:09:48;;;;;;;12.77;6.80;;;2.00;93.50;;;;;;6183108;23;20412;-83
2022/03/08 07:12:14;;;;;;;9.65;6.20;;;2.10;93.60;;;;;;6159645;23;20009;-84
2022/03/08 07:14:40;;;;;;;9.93;5.18;;;2.00;93.50;;;;;;6184128;23;20032;-83
2022/03/08 07:17:05;;;;;;;11.85;6.07;;;2.10;93.60;;;;;;6159478;23;20005;-84
2022/03/08 07:19:31;;;;;;;11.20;6.72;;;2.10;93.60;;;;;;6159006;23;20051;-85
2022/03/08 07:22:00;;;;;;;12.05;6.20;;;2.20;93.60;;;;;;6184167;23;20343;-83
2022/03/08 07:24:26;;;;;;;10.50;5.95;;;2.20;93.60;;;;;;6184212;23;20408;-83
2022/03/08 07:26:54;;;;;;;13.23;6.32;;;2.20;93.50;;;;;;6183737;23;20008;-83
2022/03/08 07:29:20;;;;;;;9.77;6.28;;;2.20;93.50;;;;;;6184102;23;20383;-83
2022/03/08 07:31:56;;;;;;;11.88;6.28;;;2.20;93.60;;;;;;6159019;23;20043;-83
2022/03/08 07:34:22;;;;;;;11.75;6.25;;;2.30;93.60;;;;;;6158085;23;20009;-83
2022/03/08 07:36:47;;;;;;;9.70;6.13;;;2.30;93.60;;;;;;6185443;23;20001;-83
2022/03/08 07:39:13;;;;;;;9.68;6.38;;;2.30;93.60;;;;;;6184069;23;20328;-83
2022/03/08 07:41:39;;;;;;;8.02;5.78;;;2.40;93.60;;;;;;6183789;23;20013;-84
2022/03/08 07:44:07;;;;;;;11.18;5.95;;;2.40;93.50;;;;;;6183850;23;20005;-83
2022/03/08 07:46:33;;;;;;;9.55;6.28;;;2.50;93.50;;;;;;6185450;23;20052;-86
2022/03/08 07:49:01;;;;;;;8.70;5.90;;;2.50;93.40;;;;;;6185597;23;20009;-83
2022/03/08 07:51:31;;;;;;;10.77;6.57;;;2.60;93.40;;;;;;6183681;23;20009;-84
2022/03/08 07:53:59;;;;;;;9.77;5.90;;;2.60;93.20;;;;;;6183795;23;20013;-84
2022/03/08 07:56:28;;;;;;;9.27;5.40;;;2.70;93.00;;;;;;6159030;23;20006;-83
2022/03/08 07:58:55;;;;;;;9.52;5.53;;;2.70;92.70;;;;;;6183715;23;20005;-84
2022/03/08 08:01:21;;;;;;;8.38;5.38;;;2.80;92.60;;;;;;6185313;23;20059;-82
2022/03/08 08:03:50;;;;;;;8.90;5.68;;;2.90;92.50;;;;;;6183628;23;20005;-84
2022/03/08 08:06:24;;;;;;;10.48;5.30;;;3.00;92.50;;;;;;6183329;23;20025;-84
2022/03/08 08:08:53;;;;;;;9.75;5.15;;;3.00;92.30;;;;;;6183663;23;20001;-84
2022/03/08 08:11:20;;;;;;;9.82;5.45;;;3.10;92.00;;;;;;6183757;23;20000;-84
2022/03/08 08:13:48;;;;;;;9.23;4.93;;;3.20;91.90;;;;;;6158962;23;20005;-84
2022/03/08 08:16:17;;;;;;;7.75;5.00;;;3.20;91.50;;;;;;6183820;23;20149;-84
2022/03/08 08:18:46;;;;;;;10.73;5.78;;;3.30;91.30;;;;;;6159564;23;20029;-85
2022/03/08 08:21:14;;;;;;;8.70;5.25;;;3.40;91.30;;;;;;6183340;23;20013;-84
2022/03/08 08:23:40;;;;;;;9.07;5.78;;;3.50;91.20;;;;;;6183699;23;20012;-84
2022/03/08 08:26:09;;;;;;;8.68;5.38;;;3.50;90.60;;;;;;6183613;23;20319;-84
2022/03/08 08:31:28;;;;;;;10.43;5.82;;;3.70;90.70;;;;;;6163295;23;20009;-84
2022/03/08 08:33:55;;;;;;;8.88;5.70;;;3.70;90.60;;;;;;6185121;23;19998;-85
2022/03/08 08:36:27;;;;;;;9.68;5.07;;;3.80;90.80;;;;;;6183655;23;20001;-84
2022/03/08 08:38:53;;;;;;;7.68;5.25;;;3.90;90.30;;;;;;6159200;23;20089;-84
2022/03/08 08:41:21;;;;;;;13.23;5.22;;;4.00;90.20;;;;;;6183462;23;20009;-85
2022/03/08 08:43:47;;;;;;;9.20;5.97;;;4.00;88.70;;;;;;6158740;23;20036;-84
2022/03/08 08:46:13;;;;;;;8.05;4.72;;;4.10;89.60;;;;;;6183618;23;19998;-84
2022/03/08 08:48:41;;;;;;;8.30;4.90;;;4.10;89.40;;;;;;6183642;23;20324;-84
2022/03/08 08:51:09;;;;;;;7.50;4.97;;;4.20;89.00;;;;;;6183577;23;20008;-85
2022/03/08 08:53:35;;;;;;;8.32;4.88;;;4.30;88.90;;;;;;6183571;23;20005;-84
2022/03/08 08:56:11;;;;;;;8.23;4.80;;;4.40;88.00;;;;;;6183418;23;20001;-84
2022/03/08 08:58:39;;;;;;;7.75;4.97;;;4.50;87.80;;;;;;6134837;23;20009;-84
2022/03/08 09:01:07;;;;;;;9.63;5.18;;;4.60;87.20;;;;;;6122322;23;20002;-85
2022/03/08 09:03:36;;;;;;;9.27;4.50;;;4.60;86.50;;;;;;6123102;23;20425;-85
2022/03/08 09:06:07;;;;;;;9.82;4.90;;;4.70;84.30;;;;;;6098377;23;20006;-85
2022/03/08 09:08:37;;;;;;;8.25;4.82;;;4.90;85.60;;;;;;6123344;23;20448;-85
2022/03/08 09:11:05;;;;;;;9.02;4.72;;;5.00;85.80;;;;;;6098298;23;20002;-84
2022/03/08 09:13:31;;;;;;;7.78;5.07;;;5.10;85.50;;;;;;6098756;23;20006;-84
2022/03/08 09:15:57;;;;;;;7.57;4.78;;;5.20;85.40;;;;;;6098473;23;20006;-84
2022/03/08 09:18:30;;;;;;;7.82;5.13;;;5.30;85.30;;;;;;6101299;23;20013;-85
2022/03/08 09:20:56;;;;;;;8.52;5.35;;;5.40;84.20;;;;;;6104203;23;20036;-83
2022/03/08 09:23:21;;;;;;;11.38;4.53;;;5.50;83.90;;;;;;6126514;23;20041;-83
2022/03/08 09:25:47;;;;;;;11.38;4.85;;;5.60;81.70;;;;;;6100664;23;20006;-83
2022/03/08 09:28:22;;;;;;;7.85;4.38;;;5.70;82.50;;;;;;6124970;23;20005;-85
2022/03/08 09:30:48;;;;;;;7.18;4.85;;;5.90;82.70;;;;;;6100124;23;20149;-84
2022/03/08 09:33:16;;;;;;;8.02;4.63;;;5.90;81.40;;;;;;6159096;23;20400;-83
2022/03/08 09:35:42;;;;;;;9.35;5.10;;;6.10;80.90;;;;;;6184647;23;20029;-83
2022/03/08 09:38:11;;;;;;;9.35;4.95;;;6.20;81.10;;;;;;6184772;23;20004;-85
2022/03/08 09:40:38;;;;;;;10.48;5.20;;;6.30;79.20;;;;;;6185350;23;20136;-83
2022/03/08 09:43:06;;;;;;;14.73;4.95;;;6.40;79.50;;;;;;6184825;23;20012;-84
2022/03/08 09:45:38;;;;;;;8.65;4.50;;;6.50;78.50;;;;;;6185257;23;20009;-82
2022/03/08 09:48:06;;;;;;;10.68;5.28;;;6.60;77.80;;;;;;6184920;23;20056;-85
2022/03/08 09:50:35;;;;;;;8.57;5.32;;;6.70;77.80;;;;;;6185135;23;20027;-82
2022/03/08 09:53:04;;;;;;;10.52;4.95;;;6.80;78.50;;;;;;6186010;23;20005;-82
2022/03/08 09:55:30;;;;;;;7.72;5.20;;;6.90;77.70;;;;;;6184607;23;20297;-82
2022/03/08 09:57:56;;;;;;;9.48;4.88;;;7.00;75.30;;;;;;6184743;23;20029;-81
2022/03/08 10:00:32;;;;;;;9.65;5.07;;;7.10;73.30;;;;;;6184940;23;20001;-82
2022/03/08 10:03:00;;;;;;;10.93;4.68;;;7.10;73.90;;;;;;6184793;23;20404;-83
2022/03/08 10:05:40;;;;;;;9.43;5.00;;;7.20;75.00;;;;;;6160566;23;20020;-82
2022/03/08 10:08:30;;;;;;;7.85;5.03;;;7.30;75.10;;;;;;6185061;23;20424;-83
2022/03/08 10:11:03;;;;;;;8.15;4.95;;;7.50;74.90;;;;;;6185279;23;20001;-84
2022/03/08 10:13:35;;;;;;;6.05;4.40;;;7.60;72.40;;;;;;6185604;23;20007;-83
2022/03/08 10:16:15;;;;;;;10.73;5.22;;;7.70;71.40;;;;;;6184951;23;19998;-83
2022/03/08 10:18:46;;;;;;;8.85;4.55;;;7.80;72.10;;;;;;6186253;23;20008;-84
2022/03/08 10:21:43;;;;;;;8.70;5.03;;;7.90;72.70;;;;;;6184340;23;20391;-84
2022/03/08 10:24:41;;;;;;;8.20;4.70;;;8.10;74.50;;;;;;6184881;23;20009;-83
2022/03/08 10:27:09;;;;;;;9.23;4.93;;;8.30;73.50;;;;;;6180191;23;20001;-83
2022/03/08 10:29:41;;;;;;;6.75;4.50;;;8.40;72.30;;;;;;6184141;23;20001;-86
2022/03/08 10:32:41;;;;;;;9.82;4.57;;;8.60;69.00;;;;;;6184642;23;20446;-85
2022/03/08 10:35:15;;;;;;;9.95;4.57;;;8.70;67.20;;;;;;6184929;23;20064;-85
2022/03/08 10:37:43;;;;;;;7.25;4.10;;;8.70;67.20;;;;;;6184523;23;19993;-84
2022/03/08 10:40:33;;;;;;;;;;;;;;;;;;;;;
2022/03/08 10:43:14;;;;;;;6.85;4.15;;;8.90;63.70;;;;;;6184170;23;20372;-85
2022/03/08 10:45:46;;;;;;;6.75;3.97;;;9.00;63.50;;;;;;6184241;23;20001;-84
2022/03/08 10:48:18;;;;;;;6.63;4.13;;;9.10;62.60;;;;;;6184011;23;20371;-83
2022/03/08 10:50:50;;;;;;;6.90;3.63;;;9.30;64.60;;;;;;6183924;23;20005;-84
2022/03/08 10:53:16;;;;;;;8.93;4.13;;;9.40;63.60;;;;;;6184426;23;20008;-84
2022/03/08 10:55:49;;;;;;;6.63;3.92;;;9.50;64.40;;;;;;6184377;23;20080;-84
2022/03/08 10:58:27;;;;;;;5.60;4.03;;;9.70;62.40;;;;;;6184995;23;20079;-83
2022/03/08 11:00:55;;;;;;;7.22;3.85;;;9.80;60.40;;;;;;6184543;23;20331;-84
2022/03/08 11:03:29;;;;;;;6.35;4.05;;;10.00;59.00;;;;;;6183682;23;20088;-85
2022/03/08 11:06:20;;;;;;;6.18;3.22;;;10.00;59.00;;;;;;6182865;23;20035;-84
2022/03/08 11:08:45;;;;;;;5.18;3.33;;;10.20;57.90;;;;;;6182440;23;20064;-84
2022/03/08 11:11:12;;;;;;;7.50;3.30;;;10.30;56.70;;;;;;6185257;23;20007;-84
2022/03/08 11:13:39;;;;;;;8.77;3.42;;;10.40;56.10;;;;;;6184348;23;20033;-84
2022/03/08 11:16:06;;;;;;;7.55;2.95;;;10.50;57.00;;;;;;6159006;23;20005;-84
2022/03/08 11:18:36;;;;;;;6.15;3.05;;;10.60;54.20;;;;;;6182356;23;19997;-83
2022/03/08 11:21:02;;;;;;;9.40;3.50;;;10.60;52.60;;;;;;6183623;23;20005;-83
2022/03/08 11:23:29;;;;;;;6.85;3.53;;;10.70;53.70;;;;;;6185687;23;20282;-84
2022/03/08 11:26:02;;;;;;;6.22;3.42;;;10.70;51.50;;;;;;6184085;23;19997;-83
2022/03/08 11:28:31;;;;;;;6.05;3.10;;;10.80;52.30;;;;;;6184095;23;20067;-84
2022/03/08 11:31:06;;;;;;;7.05;3.25;;;10.90;52.30;;;;;;6184183;23;19997;-83
2022/03/08 11:34:01;;;;;;;5.47;3.40;;;10.90;51.90;;;;;;6183926;23;20097;-83
2022/03/08 11:36:44;;;;;;;6.00;3.08;;;11.00;51.50;;;;;;6183973;23;20081;-83
2022/03/08 11:39:21;;;;;;;5.40;3.08;;;11.10;50.80;;;;;;6183718;23;20028;-83
2022/03/08 11:41:52;;;;;;;8.18;3.35;;;11.10;50.50;;;;;;6183866;23;20072;-84
2022/03/08 11:44:36;;;;;;;;;;;;;;;;;;;;;
2022/03/08 11:47:10;;;;;;;6.10;3.13;;;11.30;51.80;;;;;;6185222;23;20385;-84
2022/03/08 11:49:55;;;;;;;6.25;3.38;;;11.30;49.50;;;;;;6184055;23;20005;-84
2022/03/08 11:52:30;;;;;;;7.60;3.50;;;11.40;51.30;;;;;;6183420;23;20332;-85
2022/03/08 11:55:06;;;;;;;6.80;3.60;;;11.50;51.30;;;;;;6181903;23;20009;-85
2022/03/08 11:57:47;;;;;;;6.03;3.60;;;11.60;51.70;;;;;;6183862;23;20005;-84
2022/03/08 12:00:35;;;;;;;6.43;3.22;;;11.60;51.00;;;;;;6181409;23;20035;-84
2022/03/08 12:03:30;;;;;;;6.95;3.40;;;11.70;50.20;;;;;;6182170;23;20005;-82
2022/03/08 12:06:12;;;;;;;6.40;3.60;;;11.80;51.60;;;;;;6183551;23;20431;-83
2022/03/08 12:08:50;;;;;;;5.65;3.47;;;11.90;50.20;;;;;;6184271;23;20009;-82
2022/03/08 12:11:39;;;;;;;7.45;3.67;;;12.00;50.90;;;;;;6183679;23;20001;-82
2022/03/08 12:14:11;;;;;;;5.63;3.78;;;12.00;49.80;;;;;;6161378;23;20009;-84
2022/03/08 12:16:42;;;;;;;10.18;4.15;;;12.10;49.80;;;;;;6183888;23;20024;-82
2022/03/08 12:19:09;;;;;;;6.28;3.95;;;12.20;50.20;;;;;;6183755;23;20004;-82
2022/03/08 12:21:51;;;;;;;6.38;3.60;;;12.30;49.30;;;;;;6159015;23;20016;-82
2022/03/08 12:24:19;;;;;;;8.40;3.85;;;12.40;50.20;;;;;;6183831;23;20416;-82
2022/03/08 12:26:50;;;;;;;7.45;4.55;;;12.40;49.70;;;;;;6183854;23;20002;-83
2022/03/08 12:29:23;;;;;;;6.10;3.42;;;12.50;49.10;;;;;;6185603;23;19997;-81
2022/03/08 12:31:58;;;;;;;7.75;3.80;;;12.60;47.80;;;;;;6185264;23;20004;-84
2022/03/08 12:34:35;;;;;;;8.63;3.80;;;12.60;48.20;;;;;;6185675;23;20416;-82
2022/03/08 12:37:23;;;;;;;7.10;3.67;;;12.70;49.10;;;;;;6183761;23;20005;-83
2022/03/08 12:40:01;;;;;;;6.55;3.60;;;12.70;49.40;;;;;;6183781;23;20416;-82
2022/03/08 12:42:40;;;;;;;5.90;3.95;;;12.80;48.80;;;;;;6184916;23;20013;-82
2022/03/08 12:45:17;;;;;;;8.98;4.55;;;12.90;49.30;;;;;;6185249;23;20004;-82
2022/03/08 12:47:58;;;;;;;8.57;3.70;;;12.90;47.70;;;;;;6183539;23;20004;-83
2022/03/08 12:50:36;;;;;;;6.90;3.65;;;13.00;48.00;;;;;;6183131;23;20084;-83
2022/03/08 12:53:07;;;;;;;6.45;3.38;;;13.00;47.00;;;;;;6186767;23;20001;-83
2022/03/08 12:55:51;;;;;;;;;;;;;;;;;;;;;
2022/03/08 12:58:23;;;;;;;6.00;3.50;;;13.00;46.70;;;;;;6186732;23;20080;-82
2022/03/08 13:01:06;;;;;;;6.53;3.42;;;13.00;47.00;;;;;;6185755;23;20024;-82
2022/03/08 13:03:34;;;;;;;5.35;3.58;;;13.10;47.20;;;;;;6186924;23;20040;-82
2022/03/08 13:06:08;;;;;;;6.22;3.70;;;13.10;47.10;;;;;;6185185;23;20004;-82
2022/03/08 13:08:39;;;;;;;7.72;3.97;;;13.20;46.40;;;;;;6186511;23;20005;-82
2022/03/08 13:11:08;;;;;;;;;;;13.20;46.30;;;;;;6185968;23;19997;-82